createdAt,value
2023-01-09T00:02:40.265Z,23.7
2023-01-09T00:07:39.193Z,24.5
2023-01-09T00:12:39.818Z,24.5
2023-01-09T00:17:40.543Z,24.5
2023-01-09T00:22:39.253Z,24.5
2023-01-09T00:27:39.667Z,24.5
2023-01-09T00:32:39.377Z,24.5
2023-01-09T00:37:39.445Z,24.5
2023-01-09T00:42:39.356Z,24.7
2023-01-09T00:47:39.598Z,24.7
2023-01-09T00:52:39.186Z,24.7
2023-01-09T00:57:39.286Z,24.9
2023-01-09T01:07:39.185Z,24.9
2023-01-09T01:12:44.930Z,24.7
2023-01-09T01:17:42.573Z,24.7
2023-01-09T01:22:39.763Z,25.4
2023-01-09T01:27:39.930Z,24.9
2023-01-09T01:32:39.603Z,25.5
2023-01-09T01:37:40.428Z,25.4
2023-01-09T01:42:39.379Z,25.5
2023-01-09T01:47:40.285Z,26.1
2023-01-09T01:52:40.219Z,26.6
2023-01-09T01:57:39.412Z,26.6
2023-01-09T02:02:39.319Z,26.6
2023-01-09T02:07:39.459Z,26.7
2023-01-09T02:12:39.684Z,26.8
2023-01-09T02:17:39.184Z,26.8
2023-01-09T02:22:39.291Z,26.7
2023-01-09T02:27:39.215Z,26.7
2023-01-09T02:32:39.209Z,26.7
2023-01-09T02:37:39.214Z,26.8
2023-01-09T02:42:39.196Z,26.8
2023-01-09T02:47:39.188Z,26.7
2023-01-09T02:52:41.818Z,26.7
2023-01-09T02:57:39.211Z,27.2
2023-01-09T03:02:39.243Z,27.2
2023-01-09T03:07:39.252Z,26.6
2023-01-09T03:12:39.236Z,26.6
2023-01-09T03:17:39.236Z,26.6
2023-01-09T03:22:39.868Z,26.9
2023-01-09T03:27:39.331Z,26.9
2023-01-09T03:32:39.243Z,26.9
2023-01-09T03:37:39.282Z,26.9
2023-01-09T03:42:40.798Z,27.1
2023-01-09T03:47:39.391Z,27.1
2023-01-09T03:52:39.260Z,26.9
2023-01-09T03:57:40.621Z,27.1
2023-01-09T04:02:39.260Z,27.3
2023-01-09T04:07:39.266Z,27.5
2023-01-09T04:12:39.414Z,27.6
2023-01-09T04:17:39.409Z,27.8
2023-01-09T04:22:39.337Z,28
2023-01-09T04:27:39.369Z,28
2023-01-09T04:32:39.224Z,28.5
2023-01-09T04:37:39.221Z,28.9
2023-01-09T04:42:39.344Z,29.7
2023-01-09T04:47:39.396Z,29.7
2023-01-09T04:52:42.343Z,29.7
2023-01-09T04:57:39.316Z,29.6
2023-01-09T05:02:39.323Z,29.6
2023-01-09T05:07:40.784Z,28.9
2023-01-09T05:12:39.407Z,28.9
2023-01-09T05:17:39.496Z,28.7
2023-01-09T05:22:40.780Z,28.7
2023-01-09T05:27:40.360Z,28.6
2023-01-09T05:32:39.343Z,28.6
2023-01-09T05:37:39.581Z,28.1
2023-01-09T05:42:39.683Z,28
2023-01-09T05:47:39.433Z,27.3
2023-01-09T05:52:39.287Z,27.2
2023-01-09T05:57:40.697Z,26.7
2023-01-09T06:02:40.461Z,26.6
2023-01-09T06:07:39.383Z,25.4
2023-01-09T06:12:39.311Z,24.5
2023-01-09T06:17:39.384Z,22.8
2023-01-09T06:22:39.392Z,20.3
2023-01-09T06:27:39.391Z,18.8
2023-01-09T06:32:39.428Z,16.1
2023-01-09T06:37:39.291Z,10.1
2023-01-09T06:42:40.278Z,8.7
2023-01-09T06:47:39.241Z,7.8
2023-01-09T06:52:39.315Z,7.4
2023-01-09T06:57:39.283Z,7.3
2023-01-09T07:02:39.285Z,7.2
2023-01-09T07:07:39.243Z,7
2023-01-09T07:17:39.494Z,7
2023-01-09T07:22:39.535Z,7.1
2023-01-09T07:27:39.669Z,7.1
2023-01-09T07:42:43.479Z,7.2
2023-01-09T07:47:39.456Z,7.2
2023-01-09T07:52:39.326Z,7.3
2023-01-09T07:57:39.291Z,7.3
2023-01-09T08:02:39.321Z,7.3
2023-01-09T08:07:39.402Z,7.3
2023-01-09T08:12:39.323Z,7.3
2023-01-09T08:17:39.345Z,7.3
2023-01-09T08:22:39.421Z,7.3
2023-01-09T08:27:39.315Z,7.3
2023-01-09T08:32:39.320Z,7.3
2023-01-09T08:37:39.308Z,7.3
2023-01-09T08:42:39.749Z,7.3
2023-01-09T08:47:39.371Z,7.4
2023-01-09T08:52:39.311Z,7.4
2023-01-09T08:57:39.357Z,7.4
2023-01-09T09:02:39.289Z,7.4
2023-01-09T09:07:39.275Z,7.4
2023-01-09T09:12:39.333Z,7.4
2023-01-09T09:17:39.310Z,7.5
2023-01-09T09:22:39.449Z,7.4
2023-01-09T09:27:39.462Z,7.4
2023-01-09T09:32:39.339Z,7.3
2023-01-09T09:37:39.395Z,7.3
2023-01-09T09:42:39.392Z,7.3
2023-01-09T09:47:39.361Z,7.3
2023-01-09T09:52:39.397Z,7.3
2023-01-09T09:57:42.028Z,7.3
2023-01-09T10:02:39.589Z,7.3
2023-01-09T10:07:43.121Z,7.3
2023-01-09T10:12:39.380Z,7.3
2023-01-09T10:17:39.371Z,7.4
2023-01-09T10:22:39.519Z,7.2
2023-01-09T10:27:39.905Z,7.2
2023-01-09T10:32:39.408Z,7.2
2023-01-09T10:37:39.388Z,7
2023-01-09T10:42:49.628Z,7
2023-01-09T10:47:39.475Z,7.1
2023-01-09T10:52:39.453Z,7
2023-01-09T10:57:39.367Z,7
2023-01-09T11:02:39.488Z,7.1
2023-01-09T11:07:39.618Z,7.1
2023-01-09T11:12:39.812Z,7.1
2023-01-09T11:17:39.411Z,7.1
2023-01-09T11:22:39.623Z,7.1
2023-01-09T11:27:40.560Z,7.1
2023-01-09T11:32:39.444Z,7.1
2023-01-09T11:37:39.457Z,7.1
2023-01-09T11:42:39.311Z,7.1
2023-01-09T11:47:39.420Z,7.1
2023-01-09T11:52:40.017Z,7.1
2023-01-09T11:57:39.530Z,7.1
2023-01-09T12:02:39.434Z,7.1
2023-01-09T12:07:43.357Z,7.1
2023-01-09T12:12:39.430Z,7.1
2023-01-09T12:17:40.968Z,7.1
2023-01-09T12:22:39.597Z,7.1
2023-01-09T12:27:39.838Z,7.2
2023-01-09T12:32:39.422Z,7.2
2023-01-09T12:37:39.450Z,7.3
2023-01-09T12:42:49.903Z,7.3
2023-01-09T12:47:39.294Z,7.3
2023-01-09T12:52:43.492Z,7.6
2023-01-09T12:57:41.925Z,7.3
2023-01-09T13:02:39.374Z,7.3
2023-01-09T13:07:39.477Z,7.6
2023-01-09T13:12:40.429Z,7.3
2023-01-09T13:17:40.810Z,7.3
2023-01-09T13:22:39.722Z,7.2
2023-01-09T13:27:39.465Z,7.1
2023-01-09T13:32:39.721Z,7.1
2023-01-09T13:37:43.716Z,7
2023-01-09T13:42:40.103Z,7
2023-01-09T13:47:39.938Z,7.1
2023-01-09T13:52:44.690Z,7.5
2023-01-09T13:57:59.333Z,7.4
2023-01-09T14:02:39.787Z,7.5
2023-01-09T14:07:42.333Z,7.4
2023-01-09T14:12:39.648Z,7.3
2023-01-09T14:17:39.369Z,7.3
2023-01-09T14:28:28.639Z,7.3
2023-01-09T14:32:39.547Z,8.2
2023-01-09T14:37:42.400Z,7.6
2023-01-09T14:42:40.588Z,7.6
2023-01-09T14:47:39.395Z,7.6
2023-01-09T14:52:39.400Z,7.9
2023-01-09T14:57:39.668Z,8.2
2023-01-09T15:02:39.602Z,8.5
2023-01-09T15:07:39.459Z,8.5
2023-01-09T15:12:39.405Z,8.5
2023-01-09T15:17:44.881Z,8.5
2023-01-09T15:22:44.831Z,8.5
2023-01-09T15:27:47.979Z,8.1
2023-01-09T15:32:46.531Z,7.3
2023-01-09T15:37:44.934Z,7.1
2023-01-09T15:42:47.190Z,7.1
2023-01-09T15:47:49.798Z,7.1
2023-01-09T15:52:44.860Z,7.1
2023-01-09T15:57:46.447Z,8.1
2023-01-09T16:02:46.017Z,8.1
2023-01-09T16:07:44.725Z,8.1
2023-01-09T16:12:46.547Z,8.1
2023-01-09T16:17:47.795Z,7.9
2023-01-09T16:32:44.736Z,7.9
2023-01-09T16:37:45.167Z,7.9
2023-01-09T16:42:46.399Z,7.9
2023-01-09T16:47:45.105Z,8.4
2023-01-09T16:52:47.830Z,9.2
2023-01-09T16:57:45.320Z,9.2
2023-01-09T17:02:44.759Z,9.2
2023-01-09T17:07:44.695Z,9.6
2023-01-09T17:12:45.552Z,9.7
2023-01-09T17:17:44.767Z,9.7
2023-01-09T17:27:44.790Z,9
2023-01-09T17:42:44.868Z,8.5
2023-01-09T17:47:44.819Z,8.3
2023-01-09T17:52:45.048Z,8.5
2023-01-09T17:57:45.491Z,8.3
2023-01-09T18:02:45.785Z,8.2
2023-01-09T18:07:44.804Z,8.35
2023-01-09T18:12:45.399Z,8.3
2023-01-09T18:17:44.787Z,8.3
2023-01-09T18:22:44.799Z,8.3
2023-01-09T18:27:44.801Z,8.3
2023-01-09T18:32:44.840Z,8.3
2023-01-09T18:37:44.801Z,8.3
2023-01-09T18:42:45.026Z,8
2023-01-09T18:47:45.243Z,8
2023-01-09T18:52:44.773Z,7.9
2023-01-09T18:57:44.789Z,7.9
2023-01-09T19:02:44.765Z,7.9
2023-01-09T19:07:44.805Z,7.9
2023-01-09T19:12:45.081Z,7.9
2023-01-09T19:17:44.790Z,7.9
2023-01-09T19:22:44.789Z,8.3
2023-01-09T19:27:44.811Z,8.3
2023-01-09T19:32:44.848Z,8.3
2023-01-09T19:37:44.870Z,8.3
2023-01-09T19:42:45.411Z,8.3
2023-01-09T19:47:44.743Z,7.8
2023-01-09T19:52:44.763Z,7.8
2023-01-09T20:03:09.108Z,8.3
2023-01-09T20:07:46.332Z,8.15
2023-01-09T20:12:47.755Z,8.3
2023-01-09T20:17:47.058Z,8.4
2023-01-09T20:22:45.431Z,8.5
2023-01-09T20:27:44.799Z,8.45
2023-01-09T20:32:45.273Z,8.5
2023-01-09T20:37:44.747Z,8.5
2023-01-09T20:42:44.845Z,8.5
2023-01-09T20:47:44.847Z,8.5
2023-01-09T20:52:44.778Z,8.4
2023-01-09T20:57:44.869Z,8.1
2023-01-09T21:02:44.982Z,8.1
2023-01-09T21:07:44.769Z,8.1
2023-01-09T21:12:44.751Z,8.1
2023-01-09T21:17:44.763Z,8.1
2023-01-09T21:22:44.796Z,8.6
2023-01-09T21:27:44.764Z,8.6
2023-01-09T21:32:46.161Z,8.6
2023-01-09T21:37:44.809Z,8.8
2023-01-09T21:42:45.132Z,8.6
2023-01-09T21:47:44.986Z,8.8
2023-01-09T21:52:44.807Z,8.8
2023-01-09T21:57:44.813Z,8.8
2023-01-09T22:02:44.785Z,8.8
2023-01-09T22:07:44.859Z,8.9
2023-01-09T22:12:59.333Z,8.9
2023-01-09T22:17:57.734Z,8.9
2023-01-09T22:22:45.785Z,8.9
2023-01-09T22:27:44.767Z,9.2
2023-01-09T22:32:44.812Z,9.2
2023-01-09T22:37:44.867Z,9.3
2023-01-09T22:42:44.804Z,9.3
2023-01-09T22:47:44.768Z,9.3
2023-01-09T22:52:44.785Z,9.3
2023-01-09T22:57:44.765Z,9.3
2023-01-09T23:02:45.026Z,9.3
2023-01-09T23:07:44.791Z,9.3
2023-01-09T23:12:44.842Z,9.1
2023-01-09T23:17:45.279Z,8.8
2023-01-09T23:22:44.831Z,8.8
2023-01-09T23:27:44.838Z,8.7
2023-01-09T23:32:44.843Z,8.7
2023-01-09T23:37:44.806Z,8.6
2023-01-09T23:42:44.831Z,8.6
2023-01-09T23:47:44.787Z,8.6
2023-01-09T23:52:44.827Z,8.6
2023-01-09T23:57:44.831Z,8.6
